sensor_id;sensor_type;location;lat;lon;timestamp;P1;durP1;ratioP1;P2;durP2;ratioP2
14013;SDS011;49110;52.584;13.408;2023-10-09T00:00:24;2.13;;;1.93;;
14013;SDS011;49110;52.584;13.408;2023-10-09T00:01:40;2.73;;;2.10;;
14013;SDS011;49110;52.584;13.408;2023-10-09T00:02:44;3.03;;;2.30;;
14013;SDS011;49110;52.584;13.408;2023-10-09T00:03:44;3.80;;;2.40;;
14013;SDS011;49110;52.584;13.408;2023-10-09T00:04:45;4.67;;;2.20;;
14013;SDS011;49110;52.584;13.408;2023-10-09T00:05:46;2.60;;;2.10;;
14013;SDS011;49110;52.584;13.408;2023-10-09T00:06:46;2.60;;;2.20;;
14013;SDS011;49110;52.584;13.408;2023-10-09T00:07:48;3.80;;;2.10;;
14013;SDS011;49110;52.584;13.408;2023-10-09T00:08:48;3.33;;;2.10;;
14013;SDS011;49110;52.584;13.408;2023-10-09T00:09:53;2.67;;;2.30;;
14013;SDS011;49110;52.584;13.408;2023-10-09T00:10:55;5.00;;;2.30;;
14013;SDS011;49110;52.584;13.408;2023-10-09T00:11:57;3.73;;;2.00;;
14013;SDS011;49110;52.584;13.408;2023-10-09T00:12:58;5.53;;;2.33;;
14013;SDS011;49110;52.584;13.408;2023-10-09T00:13:59;2.63;;;2.27;;
14013;SDS011;49110;52.584;13.408;2023-10-09T00:15:00;3.17;;;2.10;;
14013;SDS011;49110;52.584;13.408;2023-10-09T00:16:11;2.93;;;2.30;;
14013;SDS011;49110;52.584;13.408;2023-10-09T00:17:15;2.70;;;2.20;;
14013;SDS011;49110;52.584;13.408;2023-10-09T00:18:16;2.23;;;2.03;;
14013;SDS011;49110;52.584;13.408;2023-10-09T00:19:21;2.43;;;2.20;;
14013;SDS011;49110;52.584;13.408;2023-10-09T00:20:36;2.20;;;2.00;;
14013;SDS011;49110;52.584;13.408;2023-10-09T00:21:40;2.83;;;2.50;;
14013;SDS011;49110;52.584;13.408;2023-10-09T00:22:41;3.03;;;2.27;;
14013;SDS011;49110;52.584;13.408;2023-10-09T00:23:43;4.63;;;2.40;;
14013;SDS011;49110;52.584;13.408;2023-10-09T00:24:43;3.13;;;2.13;;
14013;SDS011;49110;52.584;13.408;2023-10-09T00:25:49;3.93;;;2.20;;
14013;SDS011;49110;52.584;13.408;2023-10-09T00:27:08;2.40;;;2.20;;
14013;SDS011;49110;52.584;13.408;2023-10-09T00:28:12;4.30;;;2.30;;
14013;SDS011;49110;52.584;13.408;2023-10-09T00:29:13;3.17;;;2.57;;
14013;SDS011;49110;52.584;13.408;2023-10-09T00:30:23;4.43;;;2.60;;
14013;SDS011;49110;52.584;13.408;2023-10-09T00:31:29;3.50;;;2.53;;
14013;SDS011;49110;52.584;13.408;2023-10-09T00:32:33;4.13;;;2.37;;
14013;SDS011;49110;52.584;13.408;2023-10-09T00:33:37;4.43;;;2.30;;
14013;SDS011;49110;52.584;13.408;2023-10-09T00:34:37;3.13;;;2.17;;
14013;SDS011;49110;52.584;13.408;2023-10-09T00:35:39;3.03;;;2.73;;
14013;SDS011;49110;52.584;13.408;2023-10-09T00:36:54;3.20;;;2.50;;
14013;SDS011;49110;52.584;13.408;2023-10-09T00:37:57;2.97;;;2.50;;
14013;SDS011;49110;52.584;13.408;2023-10-09T00:39:06;3.73;;;2.53;;
14013;SDS011;49110;52.584;13.408;2023-10-09T00:40:19;4.17;;;2.33;;
14013;SDS011;49110;52.584;13.408;2023-10-09T00:41:20;3.47;;;2.27;;
14013;SDS011;49110;52.584;13.408;2023-10-09T00:42:24;3.40;;;2.00;;
14013;SDS011;49110;52.584;13.408;2023-10-09T00:43:34;2.53;;;2.20;;
14013;SDS011;49110;52.584;13.408;2023-10-09T00:44:36;3.50;;;2.27;;
14013;SDS011;49110;52.584;13.408;2023-10-09T00:45:42;3.37;;;2.27;;
14013;SDS011;49110;52.584;13.408;2023-10-09T00:46:44;3.13;;;2.30;;
14013;SDS011;49110;52.584;13.408;2023-10-09T00:47:47;4.10;;;2.63;;
14013;SDS011;49110;52.584;13.408;2023-10-09T00:48:49;3.13;;;2.40;;
14013;SDS011;49110;52.584;13.408;2023-10-09T00:49:57;3.03;;;2.20;;
14013;SDS011;49110;52.584;13.408;2023-10-09T00:51:00;3.57;;;2.37;;
14013;SDS011;49110;52.584;13.408;2023-10-09T00:52:01;5.83;;;2.67;;
14013;SDS011;49110;52.584;13.408;2023-10-09T00:53:02;3.60;;;2.20;;
14013;SDS011;49110;52.584;13.408;2023-10-09T00:54:12;3.63;;;2.63;;
14013;SDS011;49110;52.584;13.408;2023-10-09T00:55:15;4.30;;;2.50;;
14013;SDS011;49110;52.584;13.408;2023-10-09T00:56:27;6.83;;;2.40;;
14013;SDS011;49110;52.584;13.408;2023-10-09T00:57:28;3.33;;;2.60;;
14013;SDS011;49110;52.584;13.408;2023-10-09T00:58:31;3.97;;;2.67;;
14013;SDS011;49110;52.584;13.408;2023-10-09T00:59:36;3.40;;;2.40;;
14013;SDS011;49110;52.584;13.408;2023-10-09T01:00:42;2.93;;;2.30;;
14013;SDS011;49110;52.584;13.408;2023-10-09T01:01:46;3.87;;;2.50;;
14013;SDS011;49110;52.584;13.408;2023-10-09T01:02:56;3.47;;;2.20;;
14013;SDS011;49110;52.584;13.408;2023-10-09T01:04:10;3.80;;;2.30;;
14013;SDS011;49110;52.584;13.408;2023-10-09T01:05:15;3.40;;;2.63;;
14013;SDS011;49110;52.584;13.408;2023-10-09T01:06:19;4.90;;;2.47;;
14013;SDS011;49110;52.584;13.408;2023-10-09T01:07:28;2.97;;;2.20;;
14013;SDS011;49110;52.584;13.408;2023-10-09T01:08:31;5.37;;;2.93;;
14013;SDS011;49110;52.584;13.408;2023-10-09T01:09:41;2.93;;;2.63;;
14013;SDS011;49110;52.584;13.408;2023-10-09T01:10:46;5.47;;;2.97;;
14013;SDS011;49110;52.584;13.408;2023-10-09T01:12:05;3.20;;;2.90;;
14013;SDS011;49110;52.584;13.408;2023-10-09T01:13:05;3.77;;;2.37;;
14013;SDS011;49110;52.584;13.408;2023-10-09T01:14:09;3.50;;;2.77;;
14013;SDS011;49110;52.584;13.408;2023-10-09T01:15:10;5.73;;;2.70;;
14013;SDS011;49110;52.584;13.408;2023-10-09T01:16:36;3.97;;;2.73;;
14013;SDS011;49110;52.584;13.408;2023-10-09T01:17:36;4.43;;;2.80;;
14013;SDS011;49110;52.584;13.408;2023-10-09T01:18:38;3.37;;;2.70;;
14013;SDS011;49110;52.584;13.408;2023-10-09T01:19:43;3.03;;;2.50;;
14013;SDS011;49110;52.584;13.408;2023-10-09T01:20:44;3.03;;;2.73;;
14013;SDS011;49110;52.584;13.408;2023-10-09T01:21:45;3.90;;;2.70;;
14013;SDS011;49110;52.584;13.408;2023-10-09T01:22:46;6.13;;;2.50;;
14013;SDS011;49110;52.584;13.408;2023-10-09T01:23:50;4.53;;;2.30;;
14013;SDS011;49110;52.584;13.408;2023-10-09T01:25:03;3.33;;;2.77;;
14013;SDS011;49110;52.584;13.408;2023-10-09T01:26:06;3.43;;;2.70;;
14013;SDS011;49110;52.584;13.408;2023-10-09T01:27:06;2.43;;;2.23;;
14013;SDS011;49110;52.584;13.408;2023-10-09T01:28:16;5.90;;;2.83;;
14013;SDS011;49110;52.584;13.408;2023-10-09T01:29:18;4.23;;;2.67;;
14013;SDS011;49110;52.584;13.408;2023-10-09T01:30:29;3.60;;;2.50;;
14013;SDS011;49110;52.584;13.408;2023-10-09T01:31:31;6.07;;;2.67;;
14013;SDS011;49110;52.584;13.408;2023-10-09T01:32:33;3.50;;;2.53;;
14013;SDS011;49110;52.584;13.408;2023-10-09T01:33:34;6.97;;;2.77;;
14013;SDS011;49110;52.584;13.408;2023-10-09T01:34:36;3.97;;;2.60;;
14013;SDS011;49110;52.584;13.408;2023-10-09T01:35:49;3.33;;;2.50;;
14013;SDS011;49110;52.584;13.408;2023-10-09T01:36:55;2.90;;;2.30;;
14013;SDS011;49110;52.584;13.408;2023-10-09T01:37:56;2.43;;;2.23;;
14013;SDS011;49110;52.584;13.408;2023-10-09T01:38:59;3.90;;;2.47;;
14013;SDS011;49110;52.584;13.408;2023-10-09T01:39:59;3.20;;;2.40;;
14013;SDS011;49110;52.584;13.408;2023-10-09T01:41:25;3.40;;;2.47;;
14013;SDS011;49110;52.584;13.408;2023-10-09T01:42:27;3.83;;;2.50;;
14013;SDS011;49110;52.584;13.408;2023-10-09T01:43:30;3.60;;;2.40;;
14013;SDS011;49110;52.584;13.408;2023-10-09T01:44:34;2.33;;;2.13;;
14013;SDS011;49110;52.584;13.408;2023-10-09T01:45:34;6.30;;;2.63;;
14013;SDS011;49110;52.584;13.408;2023-10-09T01:46:46;3.13;;;2.67;;
14013;SDS011;49110;52.584;13.408;2023-10-09T01:47:46;2.60;;;2.40;;
14013;SDS011;49110;52.584;13.408;2023-10-09T01:48:54;2.60;;;2.40;;
14013;SDS011;49110;52.584;13.408;2023-10-09T01:49:55;2.57;;;2.33;;
14013;SDS011;49110;52.584;13.408;2023-10-09T01:50:57;3.23;;;2.50;;
14013;SDS011;49110;52.584;13.408;2023-10-09T01:52:00;3.93;;;2.63;;
14013;SDS011;49110;52.584;13.408;2023-10-09T01:53:07;3.53;;;2.63;;
14013;SDS011;49110;52.584;13.408;2023-10-09T01:54:08;5.93;;;2.60;;
14013;SDS011;49110;52.584;13.408;2023-10-09T01:55:15;3.70;;;2.50;;
14013;SDS011;49110;52.584;13.408;2023-10-09T01:56:27;3.77;;;2.70;;
14013;SDS011;49110;52.584;13.408;2023-10-09T01:57:28;4.50;;;2.73;;
14013;SDS011;49110;52.584;13.408;2023-10-09T01:58:30;3.10;;;2.43;;
14013;SDS011;49110;52.584;13.408;2023-10-09T01:59:32;3.23;;;2.33;;
14013;SDS011;49110;52.584;13.408;2023-10-09T02:00:33;3.80;;;2.40;;
14013;SDS011;49110;52.584;13.408;2023-10-09T02:01:42;5.43;;;2.43;;
14013;SDS011;49110;52.584;13.408;2023-10-09T02:02:47;3.27;;;2.80;;
14013;SDS011;49110;52.584;13.408;2023-10-09T02:03:48;5.30;;;2.63;;
14013;SDS011;49110;52.584;13.408;2023-10-09T02:04:52;5.50;;;2.80;;
14013;SDS011;49110;52.584;13.408;2023-10-09T02:05:54;4.47;;;2.70;;
14013;SDS011;49110;52.584;13.408;2023-10-09T02:07:14;4.97;;;2.50;;
14013;SDS011;49110;52.584;13.408;2023-10-09T02:08:15;3.83;;;2.30;;
14013;SDS011;49110;52.584;13.408;2023-10-09T02:09:21;3.03;;;2.50;;
14013;SDS011;49110;52.584;13.408;2023-10-09T02:10:30;3.40;;;2.23;;
14013;SDS011;49110;52.584;13.408;2023-10-09T02:11:30;3.97;;;2.53;;
14013;SDS011;49110;52.584;13.408;2023-10-09T02:12:45;5.13;;;2.43;;
14013;SDS011;49110;52.584;13.408;2023-10-09T02:13:47;3.70;;;2.40;;
14013;SDS011;49110;52.584;13.408;2023-10-09T02:14:53;3.53;;;2.50;;
14013;SDS011;49110;52.584;13.408;2023-10-09T02:15:56;2.73;;;2.40;;
14013;SDS011;49110;52.584;13.408;2023-10-09T02:17:13;2.80;;;2.20;;
14013;SDS011;49110;52.584;13.408;2023-10-09T02:18:20;3.13;;;2.40;;
14013;SDS011;49110;52.584;13.408;2023-10-09T02:19:21;3.40;;;2.47;;
14013;SDS011;49110;52.584;13.408;2023-10-09T02:20:40;2.93;;;2.30;;
14013;SDS011;49110;52.584;13.408;2023-10-09T02:21:40;3.73;;;2.40;;
14013;SDS011;49110;52.584;13.408;2023-10-09T02:22:41;3.43;;;2.40;;
14013;SDS011;49110;52.584;13.408;2023-10-09T02:23:42;3.87;;;2.50;;
14013;SDS011;49110;52.584;13.408;2023-10-09T02:24:45;4.17;;;2.60;;
14013;SDS011;49110;52.584;13.408;2023-10-09T02:25:48;5.73;;;3.00;;
14013;SDS011;49110;52.584;13.408;2023-10-09T02:26:53;2.20;;;2.00;;
14013;SDS011;49110;52.584;13.408;2023-10-09T02:27:53;3.67;;;2.60;;
14013;SDS011;49110;52.584;13.408;2023-10-09T02:28:57;3.83;;;2.87;;
14013;SDS011;49110;52.584;13.408;2023-10-09T02:30:07;4.40;;;2.50;;
14013;SDS011;49110;52.584;13.408;2023-10-09T02:31:15;4.13;;;2.73;;
14013;SDS011;49110;52.584;13.408;2023-10-09T02:32:16;2.87;;;2.40;;
14013;SDS011;49110;52.584;13.408;2023-10-09T02:33:25;3.67;;;2.50;;
14013;SDS011;49110;52.584;13.408;2023-10-09T02:34:29;2.53;;;2.27;;
14013;SDS011;49110;52.584;13.408;2023-10-09T02:35:30;2.53;;;2.20;;
14013;SDS011;49110;52.584;13.408;2023-10-09T02:36:42;2.90;;;2.57;;
14013;SDS011;49110;52.584;13.408;2023-10-09T02:37:49;2.43;;;2.10;;
14013;SDS011;49110;52.584;13.408;2023-10-09T02:38:50;2.93;;;2.50;;
14013;SDS011;49110;52.584;13.408;2023-10-09T02:39:53;6.63;;;2.80;;
14013;SDS011;49110;52.584;13.408;2023-10-09T02:40:55;4.63;;;2.17;;
14013;SDS011;49110;52.584;13.408;2023-10-09T02:42:04;4.03;;;2.30;;
14013;SDS011;49110;52.584;13.408;2023-10-09T02:43:19;4.40;;;2.50;;
14013;SDS011;49110;52.584;13.408;2023-10-09T02:44:19;4.23;;;2.70;;
14013;SDS011;49110;52.584;13.408;2023-10-09T02:45:24;3.93;;;2.63;;
14013;SDS011;49110;52.584;13.408;2023-10-09T02:46:25;4.17;;;2.50;;
14013;SDS011;49110;52.584;13.408;2023-10-09T02:47:29;3.50;;;2.50;;
14013;SDS011;49110;52.584;13.408;2023-10-09T02:48:31;3.70;;;2.73;;
14013;SDS011;49110;52.584;13.408;2023-10-09T02:49:36;6.57;;;3.03;;
14013;SDS011;49110;52.584;13.408;2023-10-09T02:50:38;4.50;;;2.77;;
14013;SDS011;49110;52.584;13.408;2023-10-09T02:51:39;3.37;;;2.40;;
14013;SDS011;49110;52.584;13.408;2023-10-09T02:52:42;3.03;;;2.60;;
14013;SDS011;49110;52.584;13.408;2023-10-09T02:53:43;5.57;;;2.63;;
14013;SDS011;49110;52.584;13.408;2023-10-09T02:54:44;4.47;;;2.70;;
14013;SDS011;49110;52.584;13.408;2023-10-09T02:55:47;3.17;;;2.47;;
14013;SDS011;49110;52.584;13.408;2023-10-09T02:57:02;3.83;;;2.57;;
14013;SDS011;49110;52.584;13.408;2023-10-09T02:58:07;3.00;;;2.70;;
14013;SDS011;49110;52.584;13.408;2023-10-09T02:59:14;5.47;;;3.10;;
14013;SDS011;49110;52.584;13.408;2023-10-09T03:00:15;3.47;;;2.73;;
14013;SDS011;49110;52.584;13.408;2023-10-09T03:01:29;3.53;;;3.10;;
14013;SDS011;49110;52.584;13.408;2023-10-09T03:02:29;4.00;;;3.10;;
14013;SDS011;49110;52.584;13.408;2023-10-09T03:03:31;3.03;;;2.70;;
14013;SDS011;49110;52.584;13.408;2023-10-09T03:04:35;4.77;;;2.63;;
14013;SDS011;49110;52.584;13.408;2023-10-09T03:05:37;3.83;;;3.23;;
14013;SDS011;49110;52.584;13.408;2023-10-09T03:06:42;3.37;;;2.53;;
14013;SDS011;49110;52.584;13.408;2023-10-09T03:07:51;5.80;;;3.00;;
14013;SDS011;49110;52.584;13.408;2023-10-09T03:08:53;3.07;;;2.50;;
14013;SDS011;49110;52.584;13.408;2023-10-09T03:09:54;4.30;;;2.77;;
14013;SDS011;49110;52.584;13.408;2023-10-09T03:10:55;5.60;;;2.93;;
14013;SDS011;49110;52.584;13.408;2023-10-09T03:12:00;3.03;;;2.50;;
14013;SDS011;49110;52.584;13.408;2023-10-09T03:13:02;3.60;;;3.17;;
14013;SDS011;49110;52.584;13.408;2023-10-09T03:14:06;5.30;;;3.07;;
14013;SDS011;49110;52.584;13.408;2023-10-09T03:15:06;5.90;;;3.30;;
14013;SDS011;49110;52.584;13.408;2023-10-09T03:16:09;3.60;;;3.20;;
14013;SDS011;49110;52.584;13.408;2023-10-09T03:17:14;5.47;;;3.47;;
14013;SDS011;49110;52.584;13.408;2023-10-09T03:18:14;3.50;;;3.03;;
14013;SDS011;49110;52.584;13.408;2023-10-09T03:19:15;3.97;;;3.27;;
14013;SDS011;49110;52.584;13.408;2023-10-09T03:20:16;3.73;;;2.77;;
14013;SDS011;49110;52.584;13.408;2023-10-09T03:21:19;7.07;;;3.03;;
14013;SDS011;49110;52.584;13.408;2023-10-09T03:22:20;4.53;;;3.00;;
14013;SDS011;49110;52.584;13.408;2023-10-09T03:23:21;4.60;;;3.03;;
14013;SDS011;49110;52.584;13.408;2023-10-09T03:24:21;5.43;;;3.20;;
14013;SDS011;49110;52.584;13.408;2023-10-09T03:25:22;5.80;;;3.27;;
14013;SDS011;49110;52.584;13.408;2023-10-09T03:26:25;3.93;;;3.07;;
14013;SDS011;49110;52.584;13.408;2023-10-09T03:27:25;3.27;;;2.80;;
14013;SDS011;49110;52.584;13.408;2023-10-09T03:28:26;3.27;;;2.87;;
14013;SDS011;49110;52.584;13.408;2023-10-09T03:29:26;5.27;;;2.90;;
14013;SDS011;49110;52.584;13.408;2023-10-09T03:30:30;3.50;;;3.17;;
14013;SDS011;49110;52.584;13.408;2023-10-09T03:31:33;3.23;;;2.93;;
14013;SDS011;49110;52.584;13.408;2023-10-09T03:32:33;5.07;;;3.10;;
14013;SDS011;49110;52.584;13.408;2023-10-09T03:33:34;4.13;;;3.43;;
14013;SDS011;49110;52.584;13.408;2023-10-09T03:34:35;3.97;;;2.90;;
14013;SDS011;49110;52.584;13.408;2023-10-09T03:35:36;3.77;;;3.20;;
14013;SDS011;49110;52.584;13.408;2023-10-09T03:36:38;4.37;;;3.03;;
14013;SDS011;49110;52.584;13.408;2023-10-09T03:37:38;3.60;;;3.07;;
14013;SDS011;49110;52.584;13.408;2023-10-09T03:38:39;4.87;;;3.10;;
14013;SDS011;49110;52.584;13.408;2023-10-09T03:39:39;4.43;;;3.33;;
14013;SDS011;49110;52.584;13.408;2023-10-09T03:40:47;3.67;;;2.93;;
14013;SDS011;49110;52.584;13.408;2023-10-09T03:41:48;3.90;;;3.23;;
14013;SDS011;49110;52.584;13.408;2023-10-09T03:42:50;5.07;;;3.23;;
14013;SDS011;49110;52.584;13.408;2023-10-09T03:43:50;5.40;;;3.17;;
14013;SDS011;49110;52.584;13.408;2023-10-09T03:44:51;4.73;;;3.20;;
14013;SDS011;49110;52.584;13.408;2023-10-09T03:45:57;5.03;;;3.33;;
14013;SDS011;49110;52.584;13.408;2023-10-09T03:46:59;3.63;;;2.83;;
14013;SDS011;49110;52.584;13.408;2023-10-09T03:48:00;7.00;;;3.40;;
14013;SDS011;49110;52.584;13.408;2023-10-09T03:49:11;4.73;;;3.33;;
14013;SDS011;49110;52.584;13.408;2023-10-09T03:50:13;3.33;;;2.93;;
14013;SDS011;49110;52.584;13.408;2023-10-09T03:51:32;4.43;;;3.20;;
14013;SDS011;49110;52.584;13.408;2023-10-09T03:52:33;4.57;;;2.83;;
14013;SDS011;49110;52.584;13.408;2023-10-09T03:53:35;5.17;;;2.80;;
14013;SDS011;49110;52.584;13.408;2023-10-09T03:54:36;4.40;;;3.07;;
14013;SDS011;49110;52.584;13.408;2023-10-09T03:55:38;5.07;;;2.93;;
14013;SDS011;49110;52.584;13.408;2023-10-09T03:56:39;3.17;;;2.83;;
14013;SDS011;49110;52.584;13.408;2023-10-09T03:57:40;3.67;;;3.37;;
14013;SDS011;49110;52.584;13.408;2023-10-09T03:58:41;9.20;;;3.60;;
14013;SDS011;49110;52.584;13.408;2023-10-09T03:59:43;5.07;;;3.30;;
14013;SDS011;49110;52.584;13.408;2023-10-09T04:00:44;4.23;;;3.07;;
14013;SDS011;49110;52.584;13.408;2023-10-09T04:01:49;6.00;;;3.00;;
14013;SDS011;49110;52.584;13.408;2023-10-09T04:02:53;4.57;;;3.23;;
14013;SDS011;49110;52.584;13.408;2023-10-09T04:03:57;5.63;;;3.03;;
14013;SDS011;49110;52.584;13.408;2023-10-09T04:05:03;3.53;;;2.83;;
14013;SDS011;49110;52.584;13.408;2023-10-09T04:06:07;4.67;;;3.40;;
14013;SDS011;49110;52.584;13.408;2023-10-09T04:07:10;3.93;;;2.87;;
14013;SDS011;49110;52.584;13.408;2023-10-09T04:08:11;4.03;;;3.30;;
14013;SDS011;49110;52.584;13.408;2023-10-09T04:09:29;4.40;;;3.87;;
14013;SDS011;49110;52.584;13.408;2023-10-09T04:10:39;4.70;;;3.47;;
14013;SDS011;49110;52.584;13.408;2023-10-09T04:11:52;6.67;;;3.30;;
14013;SDS011;49110;52.584;13.408;2023-10-09T04:13:11;3.73;;;2.83;;
14013;SDS011;49110;52.584;13.408;2023-10-09T04:14:16;5.70;;;3.53;;
14013;SDS011;49110;52.584;13.408;2023-10-09T04:15:33;5.10;;;3.70;;
14013;SDS011;49110;52.584;13.408;2023-10-09T04:16:35;3.93;;;3.30;;
14013;SDS011;49110;52.584;13.408;2023-10-09T04:17:51;8.23;;;3.50;;
14013;SDS011;49110;52.584;13.408;2023-10-09T04:18:51;4.23;;;3.83;;
14013;SDS011;49110;52.584;13.408;2023-10-09T04:19:52;4.80;;;3.37;;
14013;SDS011;49110;52.584;13.408;2023-10-09T04:21:11;3.53;;;3.17;;
14013;SDS011;49110;52.584;13.408;2023-10-09T04:22:34;4.20;;;3.33;;
14013;SDS011;49110;52.584;13.408;2023-10-09T04:23:39;4.03;;;3.20;;
14013;SDS011;49110;52.584;13.408;2023-10-09T04:24:58;4.23;;;3.07;;
14013;SDS011;49110;52.584;13.408;2023-10-09T04:25:58;3.90;;;2.97;;
14013;SDS011;49110;52.584;13.408;2023-10-09T04:27:00;5.43;;;3.30;;
14013;SDS011;49110;52.584;13.408;2023-10-09T04:28:02;3.43;;;3.00;;
14013;SDS011;49110;52.584;13.408;2023-10-09T04:29:09;7.17;;;3.13;;
14013;SDS011;49110;52.584;13.408;2023-10-09T04:30:18;4.60;;;3.00;;
14013;SDS011;49110;52.584;13.408;2023-10-09T04:31:19;4.40;;;3.17;;
14013;SDS011;49110;52.584;13.408;2023-10-09T04:32:21;5.80;;;3.30;;
14013;SDS011;49110;52.584;13.408;2023-10-09T04:33:25;4.67;;;3.80;;
14013;SDS011;49110;52.584;13.408;2023-10-09T04:34:29;3.63;;;3.10;;
14013;SDS011;49110;52.584;13.408;2023-10-09T04:35:34;4.43;;;3.30;;
14013;SDS011;49110;52.584;13.408;2023-10-09T04:36:37;3.67;;;3.30;;
14013;SDS011;49110;52.584;13.408;2023-10-09T04:37:46;3.43;;;3.10;;
14013;SDS011;49110;52.584;13.408;2023-10-09T04:38:52;4.90;;;3.27;;
14013;SDS011;49110;52.584;13.408;2023-10-09T04:40:16;4.57;;;3.23;;
14013;SDS011;49110;52.584;13.408;2023-10-09T04:41:36;4.37;;;3.60;;
14013;SDS011;49110;52.584;13.408;2023-10-09T04:42:42;5.60;;;3.50;;
14013;SDS011;49110;52.584;13.408;2023-10-09T04:43:58;4.80;;;3.47;;
14013;SDS011;49110;52.584;13.408;2023-10-09T04:45:17;5.10;;;3.07;;
14013;SDS011;49110;52.584;13.408;2023-10-09T04:46:19;5.77;;;3.30;;
14013;SDS011;49110;52.584;13.408;2023-10-09T04:47:23;6.47;;;3.20;;
14013;SDS011;49110;52.584;13.408;2023-10-09T04:48:25;3.77;;;3.17;;
14013;SDS011;49110;52.584;13.408;2023-10-09T04:49:38;4.27;;;3.40;;
14013;SDS011;49110;52.584;13.408;2023-10-09T04:50:49;5.97;;;3.70;;
14013;SDS011;49110;52.584;13.408;2023-10-09T04:52:08;3.77;;;3.20;;
14013;SDS011;49110;52.584;13.408;2023-10-09T04:53:18;5.27;;;3.53;;
14013;SDS011;49110;52.584;13.408;2023-10-09T04:54:18;4.50;;;3.10;;
14013;SDS011;49110;52.584;13.408;2023-10-09T04:55:39;4.00;;;3.00;;
14013;SDS011;49110;52.584;13.408;2023-10-09T04:56:44;4.13;;;3.20;;
14013;SDS011;49110;52.584;13.408;2023-10-09T04:57:53;5.63;;;3.77;;
14013;SDS011;49110;52.584;13.408;2023-10-09T04:59:09;4.70;;;3.20;;
14013;SDS011;49110;52.584;13.408;2023-10-09T05:00:10;5.10;;;3.63;;
14013;SDS011;49110;52.584;13.408;2023-10-09T05:01:24;4.17;;;3.23;;
14013;SDS011;49110;52.584;13.408;2023-10-09T05:02:36;5.77;;;3.27;;
14013;SDS011;49110;52.584;13.408;2023-10-09T05:03:37;6.33;;;3.20;;
14013;SDS011;49110;52.584;13.408;2023-10-09T05:04:40;4.80;;;3.57;;
14013;SDS011;49110;52.584;13.408;2023-10-09T05:05:41;4.37;;;3.43;;
14013;SDS011;49110;52.584;13.408;2023-10-09T05:06:42;3.87;;;3.47;;
14013;SDS011;49110;52.584;13.408;2023-10-09T05:07:42;4.50;;;3.30;;
14013;SDS011;49110;52.584;13.408;2023-10-09T05:08:55;5.07;;;3.67;;
14013;SDS011;49110;52.584;13.408;2023-10-09T05:09:55;5.97;;;3.80;;
14013;SDS011;49110;52.584;13.408;2023-10-09T05:10:57;3.50;;;3.03;;
14013;SDS011;49110;52.584;13.408;2023-10-09T05:11:59;4.97;;;3.60;;
14013;SDS011;49110;52.584;13.408;2023-10-09T05:13:09;7.00;;;3.60;;
14013;SDS011;49110;52.584;13.408;2023-10-09T05:14:13;4.70;;;3.50;;
14013;SDS011;49110;52.584;13.408;2023-10-09T05:15:14;4.47;;;3.70;;
14013;SDS011;49110;52.584;13.408;2023-10-09T05:16:16;4.27;;;3.50;;
14013;SDS011;49110;52.584;13.408;2023-10-09T05:17:28;3.93;;;3.50;;
14013;SDS011;49110;52.584;13.408;2023-10-09T05:18:29;4.03;;;3.30;;
14013;SDS011;49110;52.584;13.408;2023-10-09T05:19:36;5.13;;;3.70;;
14013;SDS011;49110;52.584;13.408;2023-10-09T05:20:54;9.30;;;3.70;;
14013;SDS011;49110;52.584;13.408;2023-10-09T05:22:18;4.23;;;3.83;;
14013;SDS011;49110;52.584;13.408;2023-10-09T05:23:36;5.73;;;3.37;;
14013;SDS011;49110;52.584;13.408;2023-10-09T05:24:44;3.40;;;3.10;;
14013;SDS011;49110;52.584;13.408;2023-10-09T05:25:47;4.20;;;3.63;;
14013;SDS011;49110;52.584;13.408;2023-10-09T05:26:55;4.10;;;3.57;;
14013;SDS011;49110;52.584;13.408;2023-10-09T05:28:15;4.43;;;3.50;;
14013;SDS011;49110;52.584;13.408;2023-10-09T05:29:25;5.27;;;3.63;;
14013;SDS011;49110;52.584;13.408;2023-10-09T05:30:32;4.90;;;3.93;;
14013;SDS011;49110;52.584;13.408;2023-10-09T05:31:33;4.83;;;3.90;;
14013;SDS011;49110;52.584;13.408;2023-10-09T05:32:53;4.73;;;3.67;;
14013;SDS011;49110;52.584;13.408;2023-10-09T05:34:20;4.43;;;3.50;;
14013;SDS011;49110;52.584;13.408;2023-10-09T05:35:22;4.13;;;3.63;;
14013;SDS011;49110;52.584;13.408;2023-10-09T05:36:39;4.30;;;3.87;;
14013;SDS011;49110;52.584;13.408;2023-10-09T05:37:47;4.70;;;3.97;;
14013;SDS011;49110;52.584;13.408;2023-10-09T05:38:55;5.50;;;3.70;;
14013;SDS011;49110;52.584;13.408;2023-10-09T05:39:59;6.20;;;4.00;;
14013;SDS011;49110;52.584;13.408;2023-10-09T05:41:01;4.93;;;3.90;;
14013;SDS011;49110;52.584;13.408;2023-10-09T05:42:22;6.07;;;4.70;;
14013;SDS011;49110;52.584;13.408;2023-10-09T05:43:28;14.30;;;5.23;;
14013;SDS011;49110;52.584;13.408;2023-10-09T05:44:47;9.13;;;4.70;;
14013;SDS011;49110;52.584;13.408;2023-10-09T05:46:06;8.33;;;4.87;;
14013;SDS011;49110;52.584;13.408;2023-10-09T05:47:08;7.37;;;5.00;;
14013;SDS011;49110;52.584;13.408;2023-10-09T05:48:27;7.17;;;4.93;;
14013;SDS011;49110;52.584;13.408;2023-10-09T05:49:39;7.73;;;5.20;;
14013;SDS011;49110;52.584;13.408;2023-10-09T05:50:46;9.03;;;4.90;;
14013;SDS011;49110;52.584;13.408;2023-10-09T05:52:05;8.67;;;5.03;;
14013;SDS011;49110;52.584;13.408;2023-10-09T05:53:25;6.87;;;4.57;;
14013;SDS011;49110;52.584;13.408;2023-10-09T05:54:44;5.77;;;4.23;;
14013;SDS011;49110;52.584;13.408;2023-10-09T05:56:14;5.70;;;4.40;;
14013;SDS011;49110;52.584;13.408;2023-10-09T05:57:33;6.20;;;4.20;;
14013;SDS011;49110;52.584;13.408;2023-10-09T05:59:05;6.00;;;4.07;;
14013;SDS011;49110;52.584;13.408;2023-10-09T06:00:31;7.00;;;4.90;;
14013;SDS011;49110;52.584;13.408;2023-10-09T06:01:50;11.70;;;5.43;;
14013;SDS011;49110;52.584;13.408;2023-10-09T06:03:03;8.27;;;4.90;;
14013;SDS011;49110;52.584;13.408;2023-10-09T06:04:18;7.57;;;5.13;;
14013;SDS011;49110;52.584;13.408;2023-10-09T06:05:20;5.13;;;4.57;;
14013;SDS011;49110;52.584;13.408;2023-10-09T06:06:39;7.97;;;4.33;;
14013;SDS011;49110;52.584;13.408;2023-10-09T06:07:44;4.80;;;4.30;;
14013;SDS011;49110;52.584;13.408;2023-10-09T06:09:05;9.00;;;5.30;;
14013;SDS011;49110;52.584;13.408;2023-10-09T06:10:15;12.07;;;4.90;;
14013;SDS011;49110;52.584;13.408;2023-10-09T06:11:37;9.03;;;4.87;;
14013;SDS011;49110;52.584;13.408;2023-10-09T06:12:37;8.23;;;4.77;;
14013;SDS011;49110;52.584;13.408;2023-10-09T06:13:40;7.17;;;4.90;;
14013;SDS011;49110;52.584;13.408;2023-10-09T06:14:45;7.27;;;4.57;;
14013;SDS011;49110;52.584;13.408;2023-10-09T06:15:49;7.67;;;4.70;;
14013;SDS011;49110;52.584;13.408;2023-10-09T06:16:50;6.93;;;4.67;;
14013;SDS011;49110;52.584;13.408;2023-10-09T06:17:57;8.03;;;4.97;;
14013;SDS011;49110;52.584;13.408;2023-10-09T06:19:18;7.50;;;4.90;;
14013;SDS011;49110;52.584;13.408;2023-10-09T06:20:31;4.97;;;4.40;;
14013;SDS011;49110;52.584;13.408;2023-10-09T06:22:08;6.13;;;4.50;;
14013;SDS011;49110;52.584;13.408;2023-10-09T06:23:27;5.37;;;4.43;;
14013;SDS011;49110;52.584;13.408;2023-10-09T06:24:47;6.50;;;4.53;;
14013;SDS011;49110;52.584;13.408;2023-10-09T06:25:53;5.70;;;4.43;;
14013;SDS011;49110;52.584;13.408;2023-10-09T06:27:05;5.57;;;4.60;;
14013;SDS011;49110;52.584;13.408;2023-10-09T06:28:06;7.87;;;4.90;;
14013;SDS011;49110;52.584;13.408;2023-10-09T06:29:07;5.90;;;4.80;;
14013;SDS011;49110;52.584;13.408;2023-10-09T06:30:30;5.00;;;4.40;;
14013;SDS011;49110;52.584;13.408;2023-10-09T06:31:35;5.47;;;4.30;;
14013;SDS011;49110;52.584;13.408;2023-10-09T06:32:54;4.87;;;4.03;;
14013;SDS011;49110;52.584;13.408;2023-10-09T06:33:58;5.77;;;4.23;;